createdAt,value
2022-10-07T00:01:33.389Z,98912.00
2022-10-07T00:04:06.238Z,98911.00
2022-10-07T00:06:38.527Z,98915.00
2022-10-07T00:09:13.666Z,98925.00
2022-10-07T00:11:47.708Z,98920.00
2022-10-07T00:14:19.810Z,98925.00
2022-10-07T00:16:56.661Z,98923.00
2022-10-07T00:19:28.885Z,98927.00
2022-10-07T00:22:01.019Z,98932.00
2022-10-07T00:24:33.484Z,98918.00
2022-10-07T00:27:08.785Z,98925.00
2022-10-07T00:29:44.543Z,98927.00
2022-10-07T00:32:17.387Z,98935.00
2022-10-07T00:34:47.467Z,98932.00
2022-10-07T00:37:20.136Z,98929.00
2022-10-07T00:39:49.510Z,98931.00
2022-10-07T00:42:20.878Z,98945.00
2022-10-07T00:44:50.100Z,98953.00
2022-10-07T00:47:35.405Z,98951.00
2022-10-07T00:50:34.049Z,98959.00
2022-10-07T00:53:07.458Z,98959.00
2022-10-07T00:55:36.819Z,98962.00
2022-10-07T00:58:10.445Z,98968.00
2022-10-07T01:00:44.356Z,98969.00
2022-10-07T01:03:18.685Z,98974.00
2022-10-07T01:05:50.651Z,98971.00
2022-10-07T01:08:25.910Z,98969.00
2022-10-07T01:11:31.623Z,98969.00
2022-10-07T01:14:41.311Z,98965.00
2022-10-07T01:17:51.573Z,98975.00
2022-10-07T01:20:46.123Z,98974.00
2022-10-07T01:24:10.061Z,98971.00
2022-10-07T01:27:17.949Z,98968.00
2022-10-07T01:30:09.854Z,98968.00
2022-10-07T01:33:05.737Z,98972.00
2022-10-07T01:35:42.116Z,98971.00
2022-10-07T01:38:18.031Z,98970.00
2022-10-07T01:41:22.888Z,98973.00
2022-10-07T01:43:58.918Z,98973.00
2022-10-07T01:46:34.998Z,98974.00
2022-10-07T01:49:13.989Z,98975.00
2022-10-07T01:51:44.058Z,98964.00
2022-10-07T01:55:04.752Z,98971.00
2022-10-07T01:58:22.234Z,98966.00
2022-10-07T02:01:33.534Z,98969.00
2022-10-07T02:04:46.823Z,98972.00
2022-10-07T02:07:58.256Z,98964.00
2022-10-07T02:11:02.965Z,98968.00
2022-10-07T02:14:13.690Z,98967.00
2022-10-07T02:17:04.608Z,98968.00
2022-10-07T02:19:40.607Z,98966.00
2022-10-07T02:22:12.575Z,98959.00
2022-10-07T02:24:49.194Z,98962.00
2022-10-07T02:27:26.521Z,98962.00
2022-10-07T02:30:02.182Z,98959.00
2022-10-07T02:32:34.751Z,98957.00
2022-10-07T02:35:18.352Z,98967.00
2022-10-07T02:37:51.418Z,98971.00
2022-10-07T02:40:21.836Z,98972.00
2022-10-07T02:43:10.710Z,98969.00
2022-10-07T02:46:27.757Z,98966.00
2022-10-07T02:49:09.645Z,98952.00
2022-10-07T02:51:55.919Z,98956.00
2022-10-07T02:54:36.848Z,98961.00
2022-10-07T02:57:08.728Z,98950.00
2022-10-07T02:59:40.216Z,98950.00
2022-10-07T03:02:19.411Z,98959.00
2022-10-07T03:04:49.842Z,98948.00
2022-10-07T03:07:19.283Z,98957.00
2022-10-07T03:09:48.383Z,98949.00
2022-10-07T03:12:17.542Z,98945.00
2022-10-07T03:14:49.961Z,98946.00
2022-10-07T03:17:22.061Z,98945.00
2022-10-07T03:19:51.594Z,98951.00
2022-10-07T03:22:21.585Z,98946.00
2022-10-07T03:24:50.687Z,98949.00
2022-10-07T03:27:20.479Z,98944.00
2022-10-07T03:29:49.883Z,98946.00
2022-10-07T03:32:19.064Z,98947.00
2022-10-07T03:34:48.214Z,98944.00
2022-10-07T03:37:17.433Z,98941.00
2022-10-07T03:39:46.605Z,98945.00
2022-10-07T03:42:15.728Z,98935.00
2022-10-07T03:44:44.822Z,98935.00
2022-10-07T03:47:14.072Z,98923.00
2022-10-07T03:49:43.292Z,98930.00
2022-10-07T03:52:12.851Z,98926.00
2022-10-07T03:54:42.160Z,98926.00
2022-10-07T03:57:23.705Z,98924.00
2022-10-07T03:59:54.507Z,98928.00
2022-10-07T04:02:24.708Z,98919.00
2022-10-07T04:04:54.078Z,98921.00
2022-10-07T04:07:23.579Z,98919.00
2022-10-07T04:09:52.939Z,98920.00
2022-10-07T04:12:22.124Z,98913.00
2022-10-07T04:14:51.471Z,98907.00
2022-10-07T04:17:21.037Z,98909.00
2022-10-07T04:19:51.045Z,98912.00
2022-10-07T04:22:20.158Z,98908.00
2022-10-07T04:25:08.945Z,98909.00
2022-10-07T04:27:58.275Z,98909.00
2022-10-07T04:30:30.434Z,98900.00
2022-10-07T04:32:59.520Z,98906.00
2022-10-07T04:35:28.789Z,98901.00
2022-10-07T04:37:58.479Z,98898.00
2022-10-07T04:40:28.695Z,98887.00
2022-10-07T04:43:09.959Z,98882.00
2022-10-07T04:45:39.816Z,98884.00
2022-10-07T04:48:09.008Z,98876.00
2022-10-07T04:50:42.050Z,98869.00
2022-10-07T04:53:15.285Z,98868.00
2022-10-07T04:55:49.877Z,98875.00
2022-10-07T04:58:20.715Z,98868.00
2022-10-07T05:00:53.324Z,98859.00
2022-10-07T05:03:25.389Z,98850.00
2022-10-07T05:05:57.527Z,98852.00
2022-10-07T05:08:26.848Z,98846.00
2022-10-07T05:11:01.460Z,98838.00
2022-10-07T05:13:30.685Z,98839.00
2022-10-07T05:16:06.720Z,98838.00
2022-10-07T05:18:36.632Z,98827.00
2022-10-07T05:21:10.623Z,98826.00
2022-10-07T05:23:40.043Z,98823.00
2022-10-07T05:26:11.442Z,98808.00
2022-10-07T05:28:42.156Z,98808.00
2022-10-07T05:31:15.109Z,98802.00
2022-10-07T05:33:45.102Z,98798.00
2022-10-07T05:36:14.346Z,98797.00
2022-10-07T05:38:43.575Z,98794.00
2022-10-07T05:41:14.115Z,98777.00
2022-10-07T05:43:44.159Z,98782.00
2022-10-07T05:46:21.045Z,98769.00
2022-10-07T05:48:52.947Z,98770.00
2022-10-07T05:51:26.549Z,98760.00
2022-10-07T05:53:59.404Z,98745.00
2022-10-07T05:56:28.653Z,98750.00
2022-10-07T05:59:00.885Z,98747.00
2022-10-07T06:01:29.944Z,98740.00
2022-10-07T06:03:59.537Z,98731.00
2022-10-07T06:06:31.103Z,98724.00
2022-10-07T06:09:19.914Z,98721.00
2022-10-07T06:12:01.447Z,98723.00
2022-10-07T06:14:30.684Z,98708.00
2022-10-07T06:16:59.789Z,98706.00
2022-10-07T06:19:29.142Z,98695.00
2022-10-07T06:21:59.551Z,98680.00
2022-10-07T06:24:28.840Z,98673.00
2022-10-07T06:26:58.195Z,98666.00
2022-10-07T06:29:27.321Z,98656.00
2022-10-07T06:31:56.650Z,98660.00
2022-10-07T06:34:25.772Z,98655.00
2022-10-07T06:36:55.955Z,98650.00
2022-10-07T06:39:25.248Z,98646.00
2022-10-07T06:41:55.523Z,98644.00
2022-10-07T06:44:24.744Z,98636.00
2022-10-07T06:46:53.892Z,98631.00
2022-10-07T06:49:23.089Z,98626.00
2022-10-07T06:51:52.224Z,98616.00
2022-10-07T06:54:21.358Z,98612.00
2022-10-07T06:56:50.452Z,98614.00
2022-10-07T06:59:19.601Z,98608.00
2022-10-07T07:01:48.713Z,98604.00
2022-10-07T07:04:17.785Z,98599.00
2022-10-07T07:06:47.492Z,98594.00
2022-10-07T07:09:16.680Z,98593.00
2022-10-07T07:11:48.292Z,98591.00
2022-10-07T07:14:19.603Z,98580.00
2022-10-07T07:16:48.847Z,98582.00
2022-10-07T07:19:19.060Z,98574.00
2022-10-07T07:21:51.338Z,98582.00
2022-10-07T07:24:20.794Z,98578.00
2022-10-07T07:26:49.981Z,98572.00
2022-10-07T07:29:19.281Z,98578.00
2022-10-07T07:31:51.931Z,98572.00
2022-10-07T07:34:21.257Z,98578.00
2022-10-07T07:36:52.714Z,98570.00
2022-10-07T07:39:22.238Z,98560.00
2022-10-07T07:41:51.861Z,98552.00
2022-10-07T07:44:21.700Z,98550.00
2022-10-07T07:46:53.124Z,98553.00
2022-10-07T07:49:24.501Z,98550.00
2022-10-07T07:51:53.709Z,98547.00
2022-10-07T07:54:23.274Z,98545.00
2022-10-07T07:56:52.451Z,98529.00
2022-10-07T07:59:22.076Z,98529.00
2022-10-07T08:01:51.215Z,98529.00
2022-10-07T08:04:20.376Z,98535.00
2022-10-07T08:06:49.532Z,98537.00
2022-10-07T08:09:18.693Z,98530.00
2022-10-07T08:11:47.839Z,98523.00
2022-10-07T08:14:18.682Z,98525.00
2022-10-07T08:16:48.331Z,98530.00
2022-10-07T08:19:18.943Z,98517.00
2022-10-07T08:21:48.263Z,98521.00
2022-10-07T08:24:18.000Z,98520.00
2022-10-07T08:26:48.363Z,98518.00
2022-10-07T08:29:19.008Z,98520.00
2022-10-07T08:31:51.542Z,98518.00
2022-10-07T08:34:20.752Z,98518.00
2022-10-07T08:36:51.530Z,98521.00
2022-10-07T08:39:20.635Z,98512.00
2022-10-07T08:42:16.811Z,98515.00
2022-10-07T08:44:51.273Z,98521.00
2022-10-07T08:47:44.698Z,98510.00
2022-10-07T08:50:58.188Z,98522.00
2022-10-07T08:53:37.888Z,98522.00
2022-10-07T08:56:26.484Z,98540.00
2022-10-07T08:59:34.197Z,98537.00
2022-10-07T09:02:37.555Z,98548.00
2022-10-07T09:05:42.478Z,98554.00
2022-10-07T09:08:29.607Z,98550.00
2022-10-07T09:11:17.918Z,98556.00
2022-10-07T09:13:57.280Z,98558.00
2022-10-07T09:16:38.391Z,98563.00
2022-10-07T09:19:23.968Z,98568.00
2022-10-07T09:21:55.347Z,98568.00
2022-10-07T09:24:31.865Z,98568.00
2022-10-07T09:27:23.730Z,98576.00
2022-10-07T09:29:54.027Z,98581.00
2022-10-07T09:32:23.700Z,98580.00
2022-10-07T09:34:53.325Z,98585.00
2022-10-07T09:37:27.044Z,98584.00
2022-10-07T09:40:17.381Z,98591.00
2022-10-07T09:42:50.730Z,98592.00
2022-10-07T09:45:41.479Z,98599.00
2022-10-07T09:48:24.148Z,98594.00
2022-10-07T09:51:12.735Z,98591.00
2022-10-07T09:54:05.252Z,98594.00
2022-10-07T09:56:47.307Z,98604.00
2022-10-07T09:59:35.557Z,98600.00
2022-10-07T10:02:31.136Z,98597.00
2022-10-07T10:05:00.829Z,98601.00
2022-10-07T10:07:38.928Z,98589.00
2022-10-07T10:10:27.998Z,98597.00
2022-10-07T10:13:00.557Z,98589.00
2022-10-07T10:15:46.399Z,98581.00
2022-10-07T10:18:41.974Z,98588.00
2022-10-07T10:21:37.752Z,98588.00
2022-10-07T10:24:15.068Z,98587.00
2022-10-07T10:27:28.185Z,98602.00
2022-10-07T10:30:23.449Z,98606.00
2022-10-07T10:33:31.959Z,98622.00
2022-10-07T10:36:23.740Z,98634.00
2022-10-07T10:39:16.353Z,98638.00
2022-10-07T10:42:06.534Z,98644.00
2022-10-07T10:45:12.621Z,98648.00
2022-10-07T10:48:20.467Z,98645.00
2022-10-07T10:51:15.958Z,98637.00
2022-10-07T10:54:19.831Z,98644.00
2022-10-07T10:57:40.373Z,98642.00
2022-10-07T11:00:24.384Z,98641.00
2022-10-07T11:03:28.111Z,98640.00
2022-10-07T11:05:58.852Z,98638.00
2022-10-07T11:08:38.139Z,98631.00
2022-10-07T11:11:21.388Z,98632.00
2022-10-07T11:14:08.205Z,98638.00
2022-10-07T11:16:54.031Z,98635.00
2022-10-07T11:20:05.016Z,98629.00
2022-10-07T11:22:46.851Z,98633.00
2022-10-07T11:25:47.340Z,98640.00
2022-10-07T11:28:24.066Z,98649.00
2022-10-07T11:31:14.645Z,98660.00
2022-10-07T11:34:18.492Z,98662.00
2022-10-07T11:37:09.822Z,98681.00
2022-10-07T11:39:40.719Z,98687.00
2022-10-07T11:42:32.846Z,98693.00
2022-10-07T11:45:10.620Z,98695.00
2022-10-07T11:47:59.292Z,98709.00
2022-10-07T11:50:38.422Z,98704.00
2022-10-07T11:53:21.326Z,98702.00
2022-10-07T11:56:17.506Z,98714.00
2022-10-07T11:58:49.792Z,98711.00
2022-10-07T12:01:48.686Z,98717.00
2022-10-07T12:04:39.237Z,98726.00
2022-10-07T12:07:46.006Z,98742.00
2022-10-07T12:10:31.189Z,98747.00
2022-10-07T12:13:38.816Z,98755.00
2022-10-07T12:16:43.882Z,98750.00
2022-10-07T12:19:23.236Z,98758.00
2022-10-07T12:22:18.820Z,98763.00
2022-10-07T12:25:21.178Z,98767.00
2022-10-07T12:27:52.661Z,98784.00
2022-10-07T12:30:50.745Z,98785.00
2022-10-07T12:33:59.713Z,98784.00
2022-10-07T12:36:30.569Z,98796.00
2022-10-07T12:39:39.992Z,98800.00
2022-10-07T12:42:14.631Z,98821.00
2022-10-07T12:44:52.284Z,98828.00
2022-10-07T12:47:31.516Z,98838.00
2022-10-07T12:50:11.363Z,98839.00
2022-10-07T12:52:59.691Z,98831.00
2022-10-07T12:55:40.284Z,98840.00
2022-10-07T12:59:11.473Z,98854.00
2022-10-07T13:02:27.825Z,98867.00
2022-10-07T13:05:48.587Z,98886.00
2022-10-07T13:08:53.351Z,98898.00
2022-10-07T13:12:10.921Z,98882.00
2022-10-07T13:15:22.845Z,98880.00
2022-10-07T13:18:36.172Z,98888.00
2022-10-07T13:21:48.833Z,98895.00
2022-10-07T13:24:24.039Z,98887.00
2022-10-07T13:26:58.175Z,98882.00
2022-10-07T13:29:38.811Z,98875.00
2022-10-07T13:32:40.317Z,98898.00
2022-10-07T13:35:39.401Z,98905.00
2022-10-07T13:38:29.201Z,98921.00
2022-10-07T13:41:44.273Z,98918.00
2022-10-07T13:44:22.711Z,98923.00
2022-10-07T13:47:08.542Z,98917.00
2022-10-07T13:49:55.669Z,98908.00
2022-10-07T13:52:45.470Z,98907.00
2022-10-07T13:55:39.028Z,98914.00
2022-10-07T13:58:09.768Z,98917.00
2022-10-07T14:01:04.407Z,98926.00
2022-10-07T14:03:36.615Z,98935.00
2022-10-07T14:06:31.800Z,98934.00
2022-10-07T14:09:04.183Z,98938.00
2022-10-07T14:11:35.912Z,98937.00
2022-10-07T14:14:22.488Z,98939.00
2022-10-07T14:17:00.893Z,98926.00
2022-10-07T14:19:33.944Z,98926.00
2022-10-07T14:22:17.643Z,98923.00
2022-10-07T14:25:02.343Z,98924.00
2022-10-07T14:28:08.581Z,98930.00
2022-10-07T14:31:22.974Z,98932.00
2022-10-07T14:34:32.240Z,98935.00
2022-10-07T14:37:41.922Z,98940.00
2022-10-07T14:40:28.225Z,98947.00
2022-10-07T14:43:01.767Z,98945.00
2022-10-07T14:45:33.575Z,98951.00
2022-10-07T14:48:15.761Z,98967.00
2022-10-07T14:50:47.837Z,98969.00
2022-10-07T14:53:18.623Z,98970.00
2022-10-07T14:55:53.373Z,98971.00
2022-10-07T14:58:28.870Z,98973.00
2022-10-07T15:01:01.329Z,98970.00
2022-10-07T15:03:34.790Z,98971.00
2022-10-07T15:06:04.012Z,98966.00
2022-10-07T15:08:37.905Z,98966.00
2022-10-07T15:11:14.713Z,98965.00
2022-10-07T15:13:54.243Z,98973.00
2022-10-07T15:16:28.971Z,98968.00
2022-10-07T15:19:03.803Z,98969.00
2022-10-07T15:21:39.447Z,98969.00
2022-10-07T15:24:14.168Z,98963.00
2022-10-07T15:26:47.840Z,98969.00
2022-10-07T15:29:17.748Z,98963.00
2022-10-07T15:31:48.928Z,98966.00
2022-10-07T15:34:21.427Z,98966.00
2022-10-07T15:36:51.212Z,98950.00
2022-10-07T15:39:23.201Z,98946.00
2022-10-07T15:41:53.669Z,98949.00
2022-10-07T15:44:23.977Z,98955.00
2022-10-07T15:46:58.610Z,98954.00
2022-10-07T15:49:30.950Z,98951.00
2022-10-07T15:52:04.763Z,98940.00
2022-10-07T15:54:34.021Z,98932.00
2022-10-07T15:57:06.409Z,98928.00
2022-10-07T15:59:40.057Z,98932.00
2022-10-07T16:02:14.958Z,98927.00
2022-10-07T16:04:51.662Z,98932.00
2022-10-07T16:07:27.783Z,98916.00
2022-10-07T16:09:59.914Z,98918.00
2022-10-07T16:12:31.787Z,98917.00
2022-10-07T16:15:03.870Z,98926.00
2022-10-07T16:17:38.007Z,98920.00
2022-10-07T16:20:11.864Z,98912.00
2022-10-07T16:22:44.037Z,98909.00
2022-10-07T16:25:19.064Z,98916.00
2022-10-07T16:28:03.246Z,98924.00
2022-10-07T16:30:47.464Z,98927.00
2022-10-07T16:33:22.967Z,98930.00
2022-10-07T16:35:56.910Z,98932.00
2022-10-07T16:38:28.843Z,98938.00
2022-10-07T16:41:03.673Z,98937.00
2022-10-07T16:43:39.676Z,98939.00
2022-10-07T16:46:23.024Z,98949.00
2022-10-07T16:48:53.316Z,98947.00
2022-10-07T16:51:32.540Z,98945.00
2022-10-07T16:54:03.763Z,98945.00
2022-10-07T16:56:38.887Z,98948.00
2022-10-07T16:59:17.388Z,98953.00
2022-10-07T17:01:57.773Z,98945.00
2022-10-07T17:04:30.072Z,98943.00
2022-10-07T17:07:03.881Z,98938.00
2022-10-07T17:09:37.264Z,98945.00
2022-10-07T17:12:07.853Z,98937.00
2022-10-07T17:14:38.306Z,98937.00
2022-10-07T17:17:08.836Z,98936.00
2022-10-07T17:19:38.105Z,98931.00
2022-10-07T17:22:09.377Z,98933.00
2022-10-07T17:24:38.567Z,98934.00
2022-10-07T17:27:08.372Z,98926.00
2022-10-07T17:29:40.917Z,98935.00
2022-10-07T17:32:14.921Z,98933.00
2022-10-07T17:34:45.578Z,98929.00
2022-10-07T17:37:18.113Z,98934.00
2022-10-07T17:39:49.430Z,98925.00
2022-10-07T17:42:20.473Z,98931.00
2022-10-07T17:44:52.927Z,98927.00
2022-10-07T17:47:28.294Z,98923.00
2022-10-07T17:50:05.504Z,98916.00
2022-10-07T17:52:34.938Z,98922.00
2022-10-07T17:55:05.190Z,98926.00
2022-10-07T17:57:36.667Z,98916.00
2022-10-07T18:00:12.973Z,98913.00
2022-10-07T18:02:48.001Z,98912.00
2022-10-07T18:05:17.338Z,98910.00
2022-10-07T18:07:49.447Z,98910.00
2022-10-07T18:10:18.631Z,98897.00
2022-10-07T18:13:02.943Z,98898.00
2022-10-07T18:15:32.097Z,98888.00
2022-10-07T18:18:02.625Z,98885.00
2022-10-07T18:20:34.809Z,98884.00
2022-10-07T18:23:07.011Z,98880.00
2022-10-07T18:25:39.540Z,98883.00
2022-10-07T18:28:11.763Z,98881.00
2022-10-07T18:30:44.779Z,98871.00
2022-10-07T18:33:17.618Z,98870.00
2022-10-07T18:35:47.411Z,98859.00
2022-10-07T18:38:19.163Z,98849.00
2022-10-07T18:40:53.336Z,98855.00
2022-10-07T18:43:24.923Z,98847.00
2022-10-07T18:46:12.257Z,98850.00
2022-10-07T18:48:49.369Z,98857.00
2022-10-07T18:51:24.308Z,98851.00
2022-10-07T18:53:53.621Z,98843.00
2022-10-07T18:56:30.357Z,98837.00
2022-10-07T18:59:06.922Z,98832.00
2022-10-07T19:01:36.227Z,98831.00
2022-10-07T19:04:14.893Z,98830.00
2022-10-07T19:06:50.911Z,98830.00
2022-10-07T19:09:27.126Z,98832.00
2022-10-07T19:12:02.433Z,98823.00
2022-10-07T19:14:35.575Z,98824.00
2022-10-07T19:17:07.289Z,98818.00
2022-10-07T19:19:42.184Z,98826.00
2022-10-07T19:22:15.956Z,98821.00
2022-10-07T19:24:57.493Z,98832.00
2022-10-07T19:27:32.355Z,98825.00
2022-10-07T19:30:08.362Z,98823.00
2022-10-07T19:32:43.058Z,98826.00
2022-10-07T19:35:18.401Z,98821.00
2022-10-07T19:37:50.636Z,98824.00
2022-10-07T19:40:22.728Z,98829.00
2022-10-07T19:42:56.699Z,98831.00
2022-10-07T19:45:28.906Z,98826.00
2022-10-07T19:48:04.194Z,98824.00
2022-10-07T19:50:37.767Z,98824.00
2022-10-07T19:53:14.101Z,98828.00
2022-10-07T19:55:49.753Z,98816.00
2022-10-07T19:58:23.178Z,98815.00
2022-10-07T20:00:55.449Z,98808.00
2022-10-07T20:03:27.786Z,98821.00
2022-10-07T20:06:15.138Z,98815.00
2022-10-07T20:08:51.816Z,98811.00
2022-10-07T20:11:24.129Z,98823.00
2022-10-07T20:13:58.665Z,98819.00
2022-10-07T20:16:34.682Z,98834.00
2022-10-07T20:19:14.702Z,98832.00
2022-10-07T20:21:49.407Z,98840.00
2022-10-07T20:24:21.529Z,98836.00
2022-10-07T20:26:53.771Z,98830.00
2022-10-07T20:29:25.727Z,98831.00
2022-10-07T20:32:00.399Z,98828.00
2022-10-07T20:34:35.487Z,98824.00
2022-10-07T20:37:08.976Z,98826.00
2022-10-07T20:39:50.393Z,98825.00
2022-10-07T20:42:24.112Z,98828.00
2022-10-07T20:44:57.465Z,98828.00
2022-10-07T20:47:36.015Z,98824.00
2022-10-07T20:50:11.099Z,98824.00
2022-10-07T20:52:45.624Z,98827.00
2022-10-07T20:55:15.249Z,98823.00
2022-10-07T20:57:46.912Z,98828.00
2022-10-07T21:00:22.422Z,98832.00
2022-10-07T21:02:55.837Z,98832.00
2022-10-07T21:05:25.740Z,98828.00
2022-10-07T21:07:56.906Z,98822.00
2022-10-07T21:10:27.066Z,98820.00
2022-10-07T21:13:00.344Z,98826.00
2022-10-07T21:15:33.353Z,98821.00
2022-10-07T21:18:06.425Z,98827.00
2022-10-07T21:20:41.269Z,98825.00
2022-10-07T21:23:13.166Z,98818.00
2022-10-07T21:25:46.599Z,98811.00
2022-10-07T21:28:19.487Z,98809.00
2022-10-07T21:31:03.721Z,98811.00
2022-10-07T21:33:34.341Z,98812.00
2022-10-07T21:36:08.947Z,98812.00
2022-10-07T21:38:44.044Z,98806.00
2022-10-07T21:41:29.779Z,98806.00
2022-10-07T21:44:04.347Z,98810.00
2022-10-07T21:46:40.966Z,98806.00
2022-10-07T21:49:14.890Z,98806.00
2022-10-07T21:51:49.693Z,98801.00
2022-10-07T21:54:23.876Z,98800.00
2022-10-07T21:56:53.001Z,98802.00
2022-10-07T21:59:28.731Z,98803.00
2022-10-07T22:02:00.717Z,98804.00
2022-10-07T22:04:34.128Z,98809.00
2022-10-07T22:07:15.418Z,98807.00
2022-10-07T22:09:47.443Z,98798.00
2022-10-07T22:12:19.510Z,98802.00
2022-10-07T22:14:48.583Z,98802.00
2022-10-07T22:17:25.678Z,98816.00
2022-10-07T22:19:59.156Z,98805.00
2022-10-07T22:22:29.549Z,98809.00
2022-10-07T22:25:01.554Z,98801.00
2022-10-07T22:27:35.237Z,98812.00
2022-10-07T22:30:06.681Z,98813.00
2022-10-07T22:32:40.166Z,98810.00
2022-10-07T22:35:22.130Z,98815.00
2022-10-07T22:37:53.977Z,98815.00
2022-10-07T22:40:32.009Z,98819.00
2022-10-07T22:43:02.142Z,98815.00
2022-10-07T22:45:34.156Z,98812.00
2022-10-07T22:48:11.188Z,98817.00
2022-10-07T22:50:42.407Z,98819.00
2022-10-07T22:53:14.244Z,98811.00
2022-10-07T22:55:49.419Z,98818.00
2022-10-07T22:58:23.054Z,98820.00
2022-10-07T23:00:57.669Z,98828.00
2022-10-07T23:03:29.238Z,98831.00
2022-10-07T23:06:01.652Z,98838.00
2022-10-07T23:08:33.159Z,98835.00
2022-10-07T23:11:09.117Z,98850.00
2022-10-07T23:13:44.516Z,98853.00
2022-10-07T23:16:22.705Z,98854.00
2022-10-07T23:18:58.517Z,98855.00
2022-10-07T23:21:31.076Z,98860.00
2022-10-07T23:24:08.900Z,98864.00
2022-10-07T23:26:43.897Z,98867.00
2022-10-07T23:29:18.874Z,98867.00
2022-10-07T23:31:51.476Z,98872.00
2022-10-07T23:34:29.016Z,98878.00
2022-10-07T23:36:58.196Z,98882.00
2022-10-07T23:39:29.495Z,98883.00
2022-10-07T23:42:01.389Z,98886.00
2022-10-07T23:44:36.026Z,98900.00
2022-10-07T23:47:05.091Z,98907.00
2022-10-07T23:49:34.275Z,98913.00
2022-10-07T23:52:03.464Z,98917.00
2022-10-07T23:54:32.456Z,98922.00
2022-10-07T23:57:01.605Z,98919.00
2022-10-07T23:59:31.171Z,98925.00
